Time;durP1;ratioP1;P1;durP2;ratioP2;P2;SDS_P1;SDS_P2;PMS_P1;PMS_P2;Temp;Humidity;BMP_temperature;BMP_pressure;BME280_temperature;BME280_humidity;BME280_pressure;Samples;Min_cycle;Max_cycle;Signal;HPM_P1;HPM_P2
2022/01/21 00:03:33;;;;;;;17.20;7.82;;;;;;;;;;10513018;28;20032;-71
2022/01/21 00:08:38;;;;;;;18.17;8.23;;;;;;;;;;10513083;28;20051;-71
2022/01/21 00:13:39;;;;;;;21.20;7.75;;;;;;;;;;10512511;28;20093;-70
2022/01/21 00:18:40;;;;;;;21.58;8.63;;;;;;;;;;10531300;28;20038;-72
2022/01/21 00:34:18;;;;;;;20.05;7.57;;;;;;;;;;10533407;28;20028;-71
2022/01/21 00:39:22;;;;;;;27.85;9.55;;;;;;;;;;10512184;28;20016;-71
2022/01/21 00:44:23;;;;;;;19.85;8.70;;;;;;;;;;10495447;28;20518;-69
2022/01/21 00:49:23;;;;;;;19.38;8.75;;;;;;;;;;10528530;28;20028;-71
2022/01/21 00:54:23;;;;;;;18.37;8.27;;;;;;;;;;10511464;28;20094;-70
2022/01/21 00:59:24;;;;;;;15.93;7.43;;;;;;;;;;10510216;28;20044;-69
2022/01/21 01:04:24;;;;;;;18.10;7.73;;;;;;;;;;10511434;28;20030;-69
2022/01/21 01:09:25;;;;;;;15.55;7.28;;;;;;;;;;10510840;28;20477;-70
2022/01/21 01:30:12;;;;;;;;;;;;;;;;;;10528849;28;20498;-71
2022/01/21 01:35:14;;;;;;;6.30;3.30;;;;;;;;;;10527123;28;19908;-74
2022/01/21 01:50:34;;;;;;;6.65;3.67;;;;;;;;;;10527112;28;20035;-71
2022/01/21 01:55:35;;;;;;;9.23;3.42;;;;;;;;;;10510100;28;20073;-74
2022/01/21 02:00:35;;;;;;;10.35;3.05;;;;;;;;;;10509107;28;20095;-70
2022/01/21 02:05:36;;;;;;;8.02;3.95;;;;;;;;;;10526734;28;20496;-71
2022/01/21 02:10:36;;;;;;;6.57;3.88;;;;;;;;;;10510710;28;20090;-71
2022/01/21 02:15:41;;;;;;;8.32;4.60;;;;;;;;;;10508425;28;20058;-71
2022/01/21 02:26:01;;;;;;;9.77;5.65;;;;;;;;;;10527242;28;20024;-70
2022/01/21 02:31:01;;;;;;;12.77;5.05;;;;;;;;;;10525210;28;20032;-71
2022/01/21 02:36:01;;;;;;;12.55;5.18;;;;;;;;;;10524841;28;20039;-71
2022/01/21 02:41:02;;;;;;;8.83;5.80;;;;;;;;;;10524878;28;20032;-71
2022/01/21 02:46:06;;;;;;;12.80;6.55;;;;;;;;;;10525154;28;20026;-70
2022/01/21 02:51:08;;;;;;;11.70;6.38;;;;;;;;;;10527029;28;20024;-73
2022/01/21 02:56:11;;;;;;;12.07;6.72;;;;;;;;;;10550687;28;20024;-70
2022/01/21 03:01:11;;;;;;;9.57;5.20;;;;;;;;;;10526480;28;20059;-70
2022/01/21 03:06:15;;;;;;;5.07;2.83;;;;;;;;;;10526292;28;20024;-70
2022/01/21 03:11:15;;;;;;;4.38;3.03;;;;;;;;;;10509482;28;20020;-76
2022/01/21 03:16:16;;;;;;;11.15;3.28;;;;;;;;;;10541401;28;20082;-74
2022/01/21 03:21:16;;;;;;;6.13;3.35;;;;;;;;;;10545873;28;20031;-70
2022/01/21 03:26:18;;;;;;;2.47;2.03;;;;;;;;;;10533216;28;20027;-70
2022/01/21 03:31:19;;;;;;;1.83;1.70;;;;;;;;;;10536003;28;20059;-71
2022/01/21 03:36:20;;;;;;;3.05;2.30;;;;;;;;;;10537167;28;20059;-69
2022/01/21 03:41:21;;;;;;;1.67;1.58;;;;;;;;;;10538972;28;20091;-69
2022/01/21 03:46:21;;;;;;;5.77;2.77;;;;;;;;;;10531131;28;20405;-68
2022/01/21 03:51:21;;;;;;;2.87;2.40;;;;;;;;;;10532336;28;20281;-69
2022/01/21 03:56:22;;;;;;;8.17;2.33;;;;;;;;;;10531326;28;20270;-69
2022/01/21 04:01:24;;;;;;;1.48;1.38;;;;;;;;;;10531796;28;20357;-68
2022/01/21 04:06:24;;;;;;;14.43;2.40;;;;;;;;;;10530685;28;20496;-70
2022/01/21 04:11:25;;;;;;;2.80;2.47;;;;;;;;;;10531577;28;20024;-70
2022/01/21 04:16:25;;;;;;;2.38;2.20;;;;;;;;;;10531388;28;20046;-69
2022/01/21 04:21:25;;;;;;;3.65;2.80;;;;;;;;;;10529721;28;20024;-70
2022/01/21 04:26:26;;;;;;;4.33;2.47;;;;;;;;;;10530241;28;20379;-70
2022/01/21 04:31:26;;;;;;;2.88;2.53;;;;;;;;;;10529247;28;20731;-72
2022/01/21 04:36:26;;;;;;;8.10;2.90;;;;;;;;;;10571072;28;20027;-70
2022/01/21 04:52:04;;;;;;;2.35;2.15;;;;;;;;;;10572810;28;20035;-70
2022/01/21 04:57:05;;;;;;;3.72;3.42;;;;;;;;;;10586843;27;20472;-69
2022/01/21 05:02:06;;;;;;;4.20;3.15;;;;;;;;;;10595294;27;20078;-70
2022/01/21 05:07:08;;;;;;;4.35;2.53;;;;;;;;;;10579954;27;20107;-73
2022/01/21 05:12:10;;;;;;;4.90;4.20;;;;;;;;;;10577150;27;20488;-73
2022/01/21 05:17:12;;;;;;;11.45;4.15;;;;;;;;;;10594456;27;20477;-74
2022/01/21 05:22:12;;;;;;;2.63;1.75;;;;;;;;;;10594519;27;20094;-73
2022/01/21 05:27:13;;;;;;;5.93;3.33;;;;;;;;;;10594374;27;20056;-75
2022/01/21 05:32:14;;;;;;;2.10;1.85;;;;;;;;;;10593679;27;20256;-72
2022/01/21 05:37:14;;;;;;;5.03;2.95;;;;;;;;;;10594139;27;20038;-72
2022/01/21 05:42:14;;;;;;;2.70;1.63;;;;;;;;;;10585243;27;20120;-73
2022/01/21 05:47:14;;;;;;;3.10;2.33;;;;;;;;;;10612270;27;20027;-73
2022/01/21 05:52:17;;;;;;;3.95;2.00;;;;;;;;;;10574688;27;20024;-75
2022/01/21 05:57:19;;;;;;;5.68;3.50;;;;;;;;;;10570266;27;20131;-77
2022/01/21 06:02:19;;;;;;;4.57;2.72;;;;;;;;;;10540151;28;20034;-76
2022/01/21 06:07:19;;;;;;;14.60;3.57;;;;;;;;;;10567500;28;20466;-78
2022/01/21 06:12:20;;;;;;;2.90;2.17;;;;;;;;;;10568021;28;20023;-78
2022/01/21 06:17:20;;;;;;;5.63;2.72;;;;;;;;;;10566809;28;20050;-73
2022/01/21 06:22:20;;;;;;;5.53;2.10;;;;;;;;;;10568546;28;20023;-74
2022/01/21 06:27:26;;;;;;;3.80;1.40;;;;;;;;;;10549706;28;20020;-73
2022/01/21 06:32:26;;;;;;;3.55;2.75;;;;;;;;;;10567256;28;20035;-72
2022/01/21 06:37:27;;;;;;;4.28;3.90;;;;;;;;;;10549641;28;20444;-72
2022/01/21 06:42:29;;;;;;;7.70;3.60;;;;;;;;;;10531896;28;20027;-73
2022/01/21 06:47:30;;;;;;;5.10;2.35;;;;;;;;;;10549414;28;20107;-76
2022/01/21 06:52:30;;;;;;;4.68;2.22;;;;;;;;;;10549498;28;20544;-76
2022/01/21 06:57:31;;;;;;;3.03;2.55;;;;;;;;;;10548666;28;20131;-75
2022/01/21 07:02:31;;;;;;;4.72;2.58;;;;;;;;;;10549550;28;20477;-79
2022/01/21 07:07:31;;;;;;;6.53;2.63;;;;;;;;;;10566551;28;20023;-74
2022/01/21 07:12:32;;;;;;;6.15;3.30;;;;;;;;;;10549246;28;20107;-76
2022/01/21 07:17:33;;;;;;;3.20;2.28;;;;;;;;;;10565971;28;20148;-75
2022/01/21 07:22:33;;;;;;;7.53;4.50;;;;;;;;;;10564767;28;20030;-73
2022/01/21 07:27:33;;;;;;;3.72;3.33;;;;;;;;;;10609491;28;20023;-76
2022/01/21 07:32:34;;;;;;;10.35;4.55;;;;;;;;;;10594945;27;20541;-76
2022/01/21 07:37:34;;;;;;;4.50;4.07;;;;;;;;;;10595557;28;20488;-78
2022/01/21 07:42:35;;;;;;;7.07;4.15;;;;;;;;;;10590448;28;20138;-73
2022/01/21 07:47:35;;;;;;;10.15;6.88;;;;;;;;;;10590680;28;20119;-72
2022/01/21 07:52:36;;;;;;;8.43;6.82;;;;;;;;;;10609142;28;20033;-76
2022/01/21 07:57:36;;;;;;;7.87;4.80;;;;;;;;;;10590162;28;20319;-73
2022/01/21 08:02:36;;;;;;;14.15;6.38;;;;;;;;;;10589832;28;20043;-77
2022/01/21 08:07:36;;;;;;;8.75;6.10;;;;;;;;;;10612800;27;20019;-73
2022/01/21 08:12:37;;;;;;;6.60;4.07;;;;;;;;;;10597847;27;20023;-77
2022/01/21 08:17:37;;;;;;;8.40;5.60;;;;;;;;;;10597132;27;20023;-78
2022/01/21 08:22:38;;;;;;;5.23;4.60;;;;;;;;;;10597584;27;20276;-74
2022/01/21 08:27:38;;;;;;;7.20;5.75;;;;;;;;;;10596975;27;20068;-73
2022/01/21 08:32:38;;;;;;;14.15;5.85;;;;;;;;;;10596418;27;20437;-72
2022/01/21 08:37:38;;;;;;;10.83;6.63;;;;;;;;;;10596931;27;20461;-73
2022/01/21 08:42:39;;;;;;;8.63;5.57;;;;;;;;;;10596062;27;20027;-74
2022/01/21 08:47:41;;;;;;;13.30;6.88;;;;;;;;;;10596571;27;20069;-73
2022/01/21 08:52:42;;;;;;;14.32;6.85;;;;;;;;;;10566891;27;20478;-74
2022/01/21 08:57:44;;;;;;;6.20;3.90;;;;;;;;;;10553184;28;20052;-74
2022/01/21 09:02:44;;;;;;;4.65;3.03;;;;;;;;;;10552804;28;20081;-73
2022/01/21 09:07:45;;;;;;;4.85;2.90;;;;;;;;;;10552934;28;20031;-79
2022/01/21 09:12:45;;;;;;;5.38;3.63;;;;;;;;;;10570205;28;20085;-73
2022/01/21 09:17:45;;;;;;;13.18;2.50;;;;;;;;;;10570015;28;20027;-75
2022/01/21 09:22:45;;;;;;;8.93;3.43;;;;;;;;;;10571371;28;20053;-79
2022/01/21 09:27:46;;;;;;;2.92;1.90;;;;;;;;;;10552715;27;20023;-79
2022/01/21 09:32:46;;;;;;;1.58;1.27;;;;;;;;;;10552113;28;20024;-73
2022/01/21 09:37:46;;;;;;;4.43;1.48;;;;;;;;;;10551609;28;20023;-73
2022/01/21 09:42:47;;;;;;;1.52;1.42;;;;;;;;;;10551604;28;20024;-74
2022/01/21 09:47:49;;;;;;;2.38;1.27;;;;;;;;;;10551725;28;20088;-75
2022/01/21 09:52:51;;;;;;;4.13;1.58;;;;;;;;;;10569178;28;20016;-78
2022/01/21 09:57:52;;;;;;;3.60;2.20;;;;;;;;;;10533870;28;20047;-74
2022/01/21 10:02:53;;;;;;;5.10;3.70;;;;;;;;;;10551627;27;20087;-80
2022/01/21 10:07:54;;;;;;;8.95;5.00;;;;;;;;;;10533029;28;20075;-74
2022/01/21 10:13:02;;;;;;;13.88;4.45;;;;;;;;;;10569404;28;20034;-76
2022/01/21 10:18:19;;;;;;;9.85;3.15;;;;;;;;;;10567208;27;20088;-77
2022/01/21 10:23:19;;;;;;;7.05;3.47;;;;;;;;;;10550192;28;20110;-73
2022/01/21 10:28:20;;;;;;;4.60;2.75;;;;;;;;;;10549608;28;20034;-75
2022/01/21 10:33:22;;;;;;;10.43;4.18;;;;;;;;;;10549610;28;20464;-76
2022/01/21 10:38:28;;;;;;;15.23;3.83;;;;;;;;;;10549165;28;20432;-75
2022/01/21 10:43:28;;;;;;;10.38;4.03;;;;;;;;;;10549735;28;20030;-75
2022/01/21 10:48:29;;;;;;;12.23;3.03;;;;;;;;;;10549626;28;20503;-76
2022/01/21 10:53:32;;;;;;;8.95;3.72;;;;;;;;;;10549721;28;20023;-76
2022/01/21 10:58:37;;;;;;;12.45;4.25;;;;;;;;;;10548871;28;20071;-77
2022/01/21 11:04:05;;;;;;;8.80;2.40;;;;;;;;;;10548921;28;20042;-78
2022/01/21 11:09:19;;;;;;;6.30;2.80;;;;;;;;;;10546194;28;20135;-74
2022/01/21 11:14:20;;;;;;;4.20;1.50;;;;;;;;;;10548601;28;20505;-76
2022/01/21 11:19:24;;;;;;;3.80;2.17;;;;;;;;;;10549074;28;20028;-76
2022/01/21 11:24:25;;;;;;;13.68;4.20;;;;;;;;;;10548760;28;20493;-74
2022/01/21 11:29:25;;;;;;;3.88;2.15;;;;;;;;;;10548197;28;20022;-73
2022/01/21 11:34:26;;;;;;;6.80;3.50;;;;;;;;;;10532093;28;20030;-76
2022/01/21 11:39:27;;;;;;;9.50;4.13;;;;;;;;;;10565703;28;20031;-72
2022/01/21 11:44:28;;;;;;;17.63;3.45;;;;;;;;;;10554837;28;20694;-72
2022/01/21 11:49:30;;;;;;;14.43;3.83;;;;;;;;;;10540171;28;20027;-77
2022/01/21 11:54:35;;;;;;;6.47;2.88;;;;;;;;;;10556232;28;20393;-73
2022/01/21 11:59:40;;;;;;;11.65;3.83;;;;;;;;;;10555306;28;20048;-76
2022/01/21 12:04:46;;;;;;;13.85;4.13;;;;;;;;;;10573027;28;20033;-79
2022/01/21 12:09:56;;;;;;;5.45;3.20;;;;;;;;;;10573969;28;20019;-73
2022/01/21 12:15:03;;;;;;;4.82;4.30;;;;;;;;;;10554920;28;20051;-73
2022/01/21 12:20:07;;;;;;;6.05;3.92;;;;;;;;;;10572501;28;20027;-73
2022/01/21 12:25:12;;;;;;;5.90;3.78;;;;;;;;;;10554979;28;20107;-78
2022/01/21 12:30:23;;;;;;;22.67;5.13;;;;;;;;;;10572154;28;20027;-78
2022/01/21 12:35:23;;;;;;;8.50;5.05;;;;;;;;;;10556062;28;20074;-77
2022/01/21 12:40:34;;;;;;;8.95;4.38;;;;;;;;;;10572284;28;20164;-73
2022/01/21 12:45:34;;;;;;;12.98;5.20;;;;;;;;;;10569022;28;20016;-80
2022/01/21 12:50:45;;;;;;;6.28;5.28;;;;;;;;;;10578976;28;20033;-74
2022/01/21 12:55:59;;;;;;;13.00;6.10;;;;;;;;;;10557379;28;20024;-75
2022/01/21 13:01:01;;;;;;;8.55;5.20;;;;;;;;;;10578930;27;20039;-74
2022/01/21 13:06:05;;;;;;;8.95;5.43;;;;;;;;;;10594901;27;20496;-73
2022/01/21 13:11:10;;;;;;;7.28;4.95;;;;;;;;;;10576176;27;20502;-79
2022/01/21 13:16:21;;;;;;;10.68;6.57;;;;;;;;;;10570768;27;20398;-76
2022/01/21 13:21:22;;;;;;;10.95;4.38;;;;;;;;;;10535275;28;20032;-70
2022/01/21 13:26:24;;;;;;;5.07;3.78;;;;;;;;;;10554519;27;20015;-73
2022/01/21 13:31:25;;;;;;;9.93;4.30;;;;;;;;;;10592848;27;20098;-74
2022/01/21 13:36:46;;;;;;;8.43;3.58;;;;;;;;;;10593604;27;20050;-77
2022/01/21 13:41:51;;;;;;;12.48;4.85;;;;;;;;;;10586866;27;20023;-72
2022/01/21 13:46:52;;;;;;;12.35;4.68;;;;;;;;;;10551376;28;20015;-72
2022/01/21 13:52:00;;;;;;;9.37;4.60;;;;;;;;;;10533163;28;20015;-71
2022/01/21 13:57:01;;;;;;;8.43;4.30;;;;;;;;;;10532390;28;20026;-74
2022/01/21 14:02:03;;;;;;;7.28;5.10;;;;;;;;;;10534343;28;20092;-71
2022/01/21 14:07:19;;;;;;;10.13;4.63;;;;;;;;;;10549547;28;20011;-72
2022/01/21 14:12:19;;;;;;;13.65;5.05;;;;;;;;;;10550198;28;20023;-71
2022/01/21 14:17:24;;;;;;;13.63;4.53;;;;;;;;;;10549525;28;20504;-73
2022/01/21 14:22:24;;;;;;;8.52;5.68;;;;;;;;;;10549408;28;20408;-76
2022/01/21 14:27:29;;;;;;;9.17;3.60;;;;;;;;;;10549669;28;20016;-74
2022/01/21 14:32:40;;;;;;;17.55;4.18;;;;;;;;;;10548893;28;20027;-71
2022/01/21 14:37:44;;;;;;;6.63;3.58;;;;;;;;;;10549401;28;20425;-74
2022/01/21 14:42:44;;;;;;;7.28;4.43;;;;;;;;;;10548778;28;20404;-73
2022/01/21 14:47:46;;;;;;;4.40;4.00;;;;;;;;;;10548749;28;20023;-72
2022/01/21 14:52:51;;;;;;;13.57;4.20;;;;;;;;;;10533283;27;20292;-76
2022/01/21 14:57:55;;;;;;;10.68;6.20;;;;;;;;;;10591108;27;20441;-71
2022/01/21 15:03:10;;;;;;;9.27;5.30;;;;;;;;;;10590092;27;20071;-71
2022/01/21 15:08:16;;;;;;;7.10;4.70;;;;;;;;;;10590008;28;20023;-72
2022/01/21 15:18:43;;;;;;;6.35;4.22;;;;;;;;;;10617378;27;20028;-75
2022/01/21 15:23:44;;;;;;;8.65;3.42;;;;;;;;;;10599678;27;20485;-76
2022/01/21 15:28:46;;;;;;;8.82;5.63;;;;;;;;;;10616545;27;20121;-75
2022/01/21 15:33:46;;;;;;;12.82;3.78;;;;;;;;;;10598433;27;20019;-75
2022/01/21 15:38:47;;;;;;;11.30;4.60;;;;;;;;;;10598844;27;20015;-75
2022/01/21 15:43:47;;;;;;;13.20;4.38;;;;;;;;;;10616983;27;20272;-77
2022/01/21 15:48:47;;;;;;;7.60;3.60;;;;;;;;;;10596956;27;20019;-77
2022/01/21 15:53:47;;;;;;;9.07;4.65;;;;;;;;;;10597428;27;20110;-75
2022/01/21 15:58:48;;;;;;;14.80;4.20;;;;;;;;;;10597200;27;20051;-76
2022/01/21 16:03:48;;;;;;;7.47;4.20;;;;;;;;;;10590143;27;20261;-71
2022/01/21 16:08:49;;;;;;;8.10;5.60;;;;;;;;;;10578495;27;20023;-75
2022/01/21 16:13:49;;;;;;;9.65;4.88;;;;;;;;;;10614802;27;20257;-77
2022/01/21 16:18:49;;;;;;;7.33;5.07;;;;;;;;;;10595941;27;20027;-74
2022/01/21 16:23:52;;;;;;;7.93;6.22;;;;;;;;;;10629425;27;20033;-70
2022/01/21 16:28:52;;;;;;;10.57;6.43;;;;;;;;;;10595608;27;20101;-72
2022/01/21 16:33:53;;;;;;;7.93;5.50;;;;;;;;;;10613873;27;20131;-73
2022/01/21 16:38:54;;;;;;;6.20;4.35;;;;;;;;;;10595601;27;20023;-71
2022/01/21 16:43:54;;;;;;;8.73;6.73;;;;;;;;;;10595910;27;20443;-70
2022/01/21 16:48:54;;;;;;;13.80;5.57;;;;;;;;;;10595033;27;20042;-74
2022/01/21 16:53:58;;;;;;;5.83;4.43;;;;;;;;;;10595018;27;20019;-75
2022/01/21 16:58:58;;;;;;;6.95;5.63;;;;;;;;;;10593622;27;20512;-74
2022/01/21 17:03:59;;;;;;;5.37;4.77;;;;;;;;;;10593415;27;20023;-73
2022/01/21 17:08:59;;;;;;;8.27;4.13;;;;;;;;;;10606798;27;20400;-72
2022/01/21 17:14:00;;;;;;;7.75;5.78;;;;;;;;;;10592536;27;20256;-76
2022/01/21 17:19:00;;;;;;;11.43;5.33;;;;;;;;;;10610504;27;20461;-72
2022/01/21 17:24:00;;;;;;;11.88;5.80;;;;;;;;;;10589946;27;20016;-72
2022/01/21 17:29:02;;;;;;;9.07;6.10;;;;;;;;;;10585668;27;20028;-71
2022/01/21 17:34:03;;;;;;;10.65;5.88;;;;;;;;;;10533606;28;20724;-72
2022/01/21 17:39:05;;;;;;;10.77;5.50;;;;;;;;;;10547679;28;20474;-76
2022/01/21 17:44:10;;;;;;;11.50;7.10;;;;;;;;;;10549620;28;20618;-73
2022/01/21 17:49:12;;;;;;;7.57;5.93;;;;;;;;;;10549469;28;20069;-72
2022/01/21 17:54:13;;;;;;;13.85;6.95;;;;;;;;;;10549626;28;20019;-71
2022/01/21 17:59:14;;;;;;;9.25;6.25;;;;;;;;;;10567278;28;20423;-71
2022/01/21 18:04:14;;;;;;;7.80;4.78;;;;;;;;;;10556141;28;20043;-77
2022/01/21 18:09:18;;;;;;;11.57;5.53;;;;;;;;;;10549207;28;20012;-71
2022/01/21 18:14:19;;;;;;;9.02;5.57;;;;;;;;;;10554541;27;20257;-71
2022/01/21 18:19:43;;;;;;;7.93;5.43;;;;;;;;;;10590320;27;20027;-73
2022/01/21 18:24:44;;;;;;;7.93;6.30;;;;;;;;;;10589211;27;20031;-72
2022/01/21 18:29:44;;;;;;;9.20;4.72;;;;;;;;;;10590349;27;20023;-71
2022/01/21 18:34:46;;;;;;;6.37;5.53;;;;;;;;;;10589705;27;20027;-76
2022/01/21 18:39:47;;;;;;;11.30;5.78;;;;;;;;;;10609349;27;20796;-75
2022/01/21 18:45:01;;;;;;;9.60;4.22;;;;;;;;;;10589563;27;20027;-74
2022/01/21 18:50:01;;;;;;;7.97;3.40;;;;;;;;;;10588759;27;20196;-73
2022/01/21 18:55:02;;;;;;;4.72;4.10;;;;;;;;;;10608311;27;20023;-79
2022/01/21 19:00:06;;;;;;;9.88;9.27;;;;;;;;;;10588952;27;20047;-74
2022/01/21 19:05:11;;;;;;;6.43;6.03;;;;;;;;;;10588210;28;20101;-71
2022/01/21 19:10:17;;;;;;;6.75;6.15;;;;;;;;;;10576042;28;20026;-75
2022/01/21 19:15:18;;;;;;;8.45;5.13;;;;;;;;;;10546771;28;20016;-72
2022/01/21 19:20:19;;;;;;;6.53;5.75;;;;;;;;;;10567610;28;20404;-72
2022/01/21 19:25:36;;;;;;;12.77;7.13;;;;;;;;;;10551856;28;20119;-77
2022/01/21 19:30:38;;;;;;;8.98;8.07;;;;;;;;;;10584934;28;20497;-73
2022/01/21 19:35:39;;;;;;;11.50;10.63;;;;;;;;;;10588193;28;20508;-72
2022/01/21 19:40:39;;;;;;;8.20;5.85;;;;;;;;;;10589442;28;20080;-72
2022/01/21 19:45:43;;;;;;;10.80;6.68;;;;;;;;;;10607427;28;20054;-73
2022/01/21 19:50:43;;;;;;;9.80;9.02;;;;;;;;;;10588395;28;20639;-72
2022/01/21 19:55:45;;;;;;;7.05;6.55;;;;;;;;;;10589542;28;20027;-74
2022/01/21 20:06:01;;;;;;;10.95;7.85;;;;;;;;;;10572403;28;20500;-74
2022/01/21 20:16:14;;;;;;;5.03;4.70;;;;;;;;;;10571459;28;20054;-71
2022/01/21 20:21:15;;;;;;;12.20;6.68;;;;;;;;;;10553744;27;20031;-75
2022/01/21 20:26:16;;;;;;;5.45;5.15;;;;;;;;;;10570848;28;20019;-73
2022/01/21 20:31:16;;;;;;;4.43;3.95;;;;;;;;;;10554668;27;20023;-78
2022/01/21 20:36:26;;;;;;;5.17;4.77;;;;;;;;;;10554984;28;20030;-77
2022/01/21 20:41:46;;;;;;;5.22;4.85;;;;;;;;;;10572495;28;20047;-73
2022/01/21 20:46:48;;;;;;;7.50;6.75;;;;;;;;;;10553885;27;20499;-73
2022/01/21 20:51:51;;;;;;;8.68;7.95;;;;;;;;;;10571409;28;20024;-76
2022/01/21 20:56:53;;;;;;;8.40;6.50;;;;;;;;;;10571587;28;20383;-75
2022/01/21 21:01:54;;;;;;;6.47;5.97;;;;;;;;;;10566419;27;20078;-79
2022/01/21 21:06:55;;;;;;;6.50;6.20;;;;;;;;;;10593758;27;20566;-73
2022/01/21 21:11:58;;;;;;;5.60;5.20;;;;;;;;;;10612204;27;20511;-73
2022/01/21 21:17:18;;;;;;;10.63;9.93;;;;;;;;;;10595116;27;20428;-72
2022/01/21 21:27:42;;;;;;;13.38;12.57;;;;;;;;;;10575805;28;20016;-74
2022/01/21 23:03:47;;;;;;;8.57;6.45;;;;;;;;;;10571639;27;20094;-76
2022/01/21 23:08:47;;;;;;;5.13;4.60;;;;;;;;;;10590440;28;20023;-77
2022/01/21 23:13:47;;;;;;;4.35;4.07;;;;;;;;;;10591104;28;20520;-74
2022/01/21 23:18:47;;;;;;;5.40;5.00;;;;;;;;;;10590657;28;20146;-77
2022/01/21 23:23:57;;;;;;;7.15;6.20;;;;;;;;;;10595688;28;20074;-74
2022/01/21 23:34:03;;;;;;;8.43;7.90;;;;;;;;;;10607705;28;20111;-75
2022/01/21 23:39:09;;;;;;;7.03;6.32;;;;;;;;;;10615744;27;20538;-75
2022/01/21 23:44:10;;;;;;;7.55;6.82;;;;;;;;;;10610317;27;20031;-73
2022/01/21 23:49:17;;;;;;;15.82;8.80;;;;;;;;;;10621730;27;20031;-76
2022/01/21 23:54:18;;;;;;;8.40;7.70;;;;;;;;;;10597490;27;20099;-80
2022/01/21 23:59:20;;;;;;;9.68;8.65;;;;;;;;;;10590376;27;20104;-76
